sensor_id;sensor_type;location;lat;lon;timestamp;temperature;humidity
22706;DHT22;11520;51.198;4.468;2023-11-21T00:02:20;10.00;99.90
22706;DHT22;11520;51.198;4.468;2023-11-21T00:04:46;10.00;99.90
22706;DHT22;11520;51.198;4.468;2023-11-21T00:07:12;9.90;99.90
22706;DHT22;11520;51.198;4.468;2023-11-21T00:09:38;9.80;99.90
22706;DHT22;11520;51.198;4.468;2023-11-21T00:12:03;9.70;99.90
22706;DHT22;11520;51.198;4.468;2023-11-21T00:14:29;9.70;99.90
22706;DHT22;11520;51.198;4.468;2023-11-21T00:16:55;9.60;99.90
22706;DHT22;11520;51.198;4.468;2023-11-21T00:19:21;9.60;99.90
22706;DHT22;11520;51.198;4.468;2023-11-21T00:21:46;9.70;99.90
22706;DHT22;11520;51.198;4.468;2023-11-21T00:24:12;9.70;99.90
22706;DHT22;11520;51.198;4.468;2023-11-21T00:26:39;9.70;99.90
22706;DHT22;11520;51.198;4.468;2023-11-21T00:29:05;9.80;99.90
22706;DHT22;11520;51.198;4.468;2023-11-21T00:31:34;9.90;99.90
22706;DHT22;11520;51.198;4.468;2023-11-21T00:34:02;9.90;99.90
22706;DHT22;11520;51.198;4.468;2023-11-21T00:36:29;10.00;99.90
22706;DHT22;11520;51.198;4.468;2023-11-21T00:38:54;10.00;99.90
22706;DHT22;11520;51.198;4.468;2023-11-21T00:41:21;10.00;99.90
22706;DHT22;11520;51.198;4.468;2023-11-21T00:43:47;10.10;99.90
22706;DHT22;11520;51.198;4.468;2023-11-21T00:46:12;10.10;99.90
22706;DHT22;11520;51.198;4.468;2023-11-21T00:48:39;10.20;99.90
22706;DHT22;11520;51.198;4.468;2023-11-21T00:51:04;10.20;99.90
22706;DHT22;11520;51.198;4.468;2023-11-21T00:53:31;10.20;99.90
22706;DHT22;11520;51.198;4.468;2023-11-21T00:55:57;10.20;99.90
22706;DHT22;11520;51.198;4.468;2023-11-21T00:58:24;10.30;99.90
22706;DHT22;11520;51.198;4.468;2023-11-21T01:00:50;10.20;99.90
22706;DHT22;11520;51.198;4.468;2023-11-21T01:03:15;10.20;99.90
22706;DHT22;11520;51.198;4.468;2023-11-21T01:05:41;10.20;99.90
22706;DHT22;11520;51.198;4.468;2023-11-21T01:08:07;10.20;99.90
22706;DHT22;11520;51.198;4.468;2023-11-21T01:10:32;10.10;99.90
22706;DHT22;11520;51.198;4.468;2023-11-21T01:12:59;10.00;99.90
22706;DHT22;11520;51.198;4.468;2023-11-21T01:15:25;9.90;99.90
22706;DHT22;11520;51.198;4.468;2023-11-21T01:17:51;9.80;99.90
22706;DHT22;11520;51.198;4.468;2023-11-21T01:20:17;9.80;99.90
22706;DHT22;11520;51.198;4.468;2023-11-21T01:22:43;9.80;99.90
22706;DHT22;11520;51.198;4.468;2023-11-21T01:25:09;9.80;99.90
22706;DHT22;11520;51.198;4.468;2023-11-21T01:27:36;9.80;99.90
22706;DHT22;11520;51.198;4.468;2023-11-21T01:30:05;9.90;99.90
22706;DHT22;11520;51.198;4.468;2023-11-21T01:32:33;10.00;99.90
22706;DHT22;11520;51.198;4.468;2023-11-21T01:35:00;10.10;99.90
22706;DHT22;11520;51.198;4.468;2023-11-21T01:37:25;10.10;99.90
22706;DHT22;11520;51.198;4.468;2023-11-21T01:39:54;10.10;99.90
22706;DHT22;11520;51.198;4.468;2023-11-21T01:42:20;10.20;99.90
22706;DHT22;11520;51.198;4.468;2023-11-21T01:44:46;10.20;99.90
22706;DHT22;11520;51.198;4.468;2023-11-21T01:47:12;10.30;99.90
22706;DHT22;11520;51.198;4.468;2023-11-21T01:49:38;10.30;99.90
22706;DHT22;11520;51.198;4.468;2023-11-21T01:52:04;10.30;99.90
22706;DHT22;11520;51.198;4.468;2023-11-21T01:54:32;10.30;99.90
22706;DHT22;11520;51.198;4.468;2023-11-21T01:56:58;10.40;99.90
22706;DHT22;11520;51.198;4.468;2023-11-21T01:59:31;10.40;99.90
22706;DHT22;11520;51.198;4.468;2023-11-21T02:01:59;10.40;99.90
22706;DHT22;11520;51.198;4.468;2023-11-21T02:04:25;10.40;99.90
22706;DHT22;11520;51.198;4.468;2023-11-21T02:06:50;10.40;99.90
22706;DHT22;11520;51.198;4.468;2023-11-21T02:09:16;10.50;99.90
22706;DHT22;11520;51.198;4.468;2023-11-21T02:11:43;10.50;99.90
22706;DHT22;11520;51.198;4.468;2023-11-21T02:14:09;10.50;99.90
22706;DHT22;11520;51.198;4.468;2023-11-21T02:16:35;10.50;99.90
22706;DHT22;11520;51.198;4.468;2023-11-21T02:19:03;10.60;99.90
22706;DHT22;11520;51.198;4.468;2023-11-21T02:21:32;10.60;99.90
22706;DHT22;11520;51.198;4.468;2023-11-21T02:23:58;10.60;99.90
22706;DHT22;11520;51.198;4.468;2023-11-21T02:26:24;10.60;99.90
22706;DHT22;11520;51.198;4.468;2023-11-21T02:28:51;10.60;99.90
22706;DHT22;11520;51.198;4.468;2023-11-21T02:31:18;10.60;99.90
22706;DHT22;11520;51.198;4.468;2023-11-21T02:33:44;10.70;99.90
22706;DHT22;11520;51.198;4.468;2023-11-21T02:36:10;10.60;99.90
22706;DHT22;11520;51.198;4.468;2023-11-21T02:38:35;10.60;99.90
22706;DHT22;11520;51.198;4.468;2023-11-21T02:41:01;10.70;99.90
22706;DHT22;11520;51.198;4.468;2023-11-21T02:43:26;10.70;99.90
22706;DHT22;11520;51.198;4.468;2023-11-21T02:45:52;10.70;99.90
22706;DHT22;11520;51.198;4.468;2023-11-21T02:48:17;10.80;99.90
22706;DHT22;11520;51.198;4.468;2023-11-21T02:50:43;10.80;99.90
22706;DHT22;11520;51.198;4.468;2023-11-21T02:53:09;10.80;99.90
22706;DHT22;11520;51.198;4.468;2023-11-21T02:55:36;10.80;99.90
22706;DHT22;11520;51.198;4.468;2023-11-21T02:58:02;10.80;99.90
22706;DHT22;11520;51.198;4.468;2023-11-21T03:00:29;10.80;99.90
22706;DHT22;11520;51.198;4.468;2023-11-21T03:02:56;10.80;99.90
22706;DHT22;11520;51.198;4.468;2023-11-21T03:05:21;10.70;99.90
22706;DHT22;11520;51.198;4.468;2023-11-21T03:07:47;10.80;99.90
22706;DHT22;11520;51.198;4.468;2023-11-21T03:10:13;10.80;99.90
22706;DHT22;11520;51.198;4.468;2023-11-21T03:12:39;10.80;99.90
22706;DHT22;11520;51.198;4.468;2023-11-21T03:15:06;10.80;99.90
22706;DHT22;11520;51.198;4.468;2023-11-21T03:17:32;10.80;99.90
22706;DHT22;11520;51.198;4.468;2023-11-21T03:19:59;10.80;99.90
22706;DHT22;11520;51.198;4.468;2023-11-21T03:22:25;10.80;99.90
22706;DHT22;11520;51.198;4.468;2023-11-21T03:24:51;10.80;99.90
22706;DHT22;11520;51.198;4.468;2023-11-21T03:27:18;10.80;99.90
22706;DHT22;11520;51.198;4.468;2023-11-21T03:29:43;10.90;99.90
22706;DHT22;11520;51.198;4.468;2023-11-21T03:32:10;10.90;99.90
22706;DHT22;11520;51.198;4.468;2023-11-21T03:34:41;10.90;99.90
22706;DHT22;11520;51.198;4.468;2023-11-21T03:37:17;10.90;99.90
22706;DHT22;11520;51.198;4.468;2023-11-21T03:39:43;10.90;99.90
22706;DHT22;11520;51.198;4.468;2023-11-21T03:42:09;11.00;99.90
22706;DHT22;11520;51.198;4.468;2023-11-21T03:44:34;11.00;99.90
22706;DHT22;11520;51.198;4.468;2023-11-21T03:47:00;11.00;99.90
22706;DHT22;11520;51.198;4.468;2023-11-21T03:49:25;11.00;99.90
22706;DHT22;11520;51.198;4.468;2023-11-21T03:51:51;11.00;99.90
22706;DHT22;11520;51.198;4.468;2023-11-21T03:54:16;11.00;99.90
22706;DHT22;11520;51.198;4.468;2023-11-21T03:56:42;11.00;99.90
22706;DHT22;11520;51.198;4.468;2023-11-21T03:59:07;11.00;99.90
22706;DHT22;11520;51.198;4.468;2023-11-21T04:01:33;11.00;99.90
22706;DHT22;11520;51.198;4.468;2023-11-21T04:04:00;11.00;99.90
22706;DHT22;11520;51.198;4.468;2023-11-21T04:06:25;11.00;99.90
22706;DHT22;11520;51.198;4.468;2023-11-21T04:08:51;11.00;99.90
22706;DHT22;11520;51.198;4.468;2023-11-21T04:11:16;11.10;99.90
22706;DHT22;11520;51.198;4.468;2023-11-21T04:13:42;11.10;99.90
22706;DHT22;11520;51.198;4.468;2023-11-21T04:16:08;11.10;99.90
22706;DHT22;11520;51.198;4.468;2023-11-21T04:18:36;11.10;99.90
22706;DHT22;11520;51.198;4.468;2023-11-21T04:21:04;11.10;99.90
22706;DHT22;11520;51.198;4.468;2023-11-21T04:23:30;11.10;99.90
22706;DHT22;11520;51.198;4.468;2023-11-21T04:25:57;11.10;99.90
22706;DHT22;11520;51.198;4.468;2023-11-21T04:28:23;11.10;99.90
22706;DHT22;11520;51.198;4.468;2023-11-21T04:30:50;11.10;99.90
22706;DHT22;11520;51.198;4.468;2023-11-21T04:33:15;11.10;99.90
22706;DHT22;11520;51.198;4.468;2023-11-21T04:35:41;11.10;99.90
22706;DHT22;11520;51.198;4.468;2023-11-21T04:38:07;11.10;99.90
22706;DHT22;11520;51.198;4.468;2023-11-21T04:40:32;11.20;99.90
22706;DHT22;11520;51.198;4.468;2023-11-21T04:42:58;11.20;99.90
22706;DHT22;11520;51.198;4.468;2023-11-21T04:45:24;11.20;99.90
22706;DHT22;11520;51.198;4.468;2023-11-21T04:47:50;11.20;99.90
22706;DHT22;11520;51.198;4.468;2023-11-21T04:50:18;11.10;99.90
22706;DHT22;11520;51.198;4.468;2023-11-21T04:52:44;11.10;99.90
22706;DHT22;11520;51.198;4.468;2023-11-21T04:55:10;11.20;99.90
22706;DHT22;11520;51.198;4.468;2023-11-21T04:57:39;11.20;99.90
22706;DHT22;11520;51.198;4.468;2023-11-21T05:00:08;11.10;99.90
22706;DHT22;11520;51.198;4.468;2023-11-21T05:02:34;11.10;99.90
22706;DHT22;11520;51.198;4.468;2023-11-21T05:05:01;11.00;99.90
22706;DHT22;11520;51.198;4.468;2023-11-21T05:07:33;11.10;99.90
22706;DHT22;11520;51.198;4.468;2023-11-21T05:10:00;11.10;99.90
22706;DHT22;11520;51.198;4.468;2023-11-21T05:12:31;11.20;99.90
22706;DHT22;11520;51.198;4.468;2023-11-21T05:15:01;11.20;99.90
22706;DHT22;11520;51.198;4.468;2023-11-21T05:17:28;11.20;99.90
22706;DHT22;11520;51.198;4.468;2023-11-21T05:19:54;11.10;99.90
22706;DHT22;11520;51.198;4.468;2023-11-21T05:22:20;11.20;99.90
22706;DHT22;11520;51.198;4.468;2023-11-21T05:24:45;11.20;99.90
22706;DHT22;11520;51.198;4.468;2023-11-21T05:27:11;11.10;99.90
22706;DHT22;11520;51.198;4.468;2023-11-21T05:29:37;11.10;99.90
22706;DHT22;11520;51.198;4.468;2023-11-21T05:32:05;11.10;99.90
22706;DHT22;11520;51.198;4.468;2023-11-21T05:34:31;11.10;99.90
22706;DHT22;11520;51.198;4.468;2023-11-21T05:36:56;11.00;99.90
22706;DHT22;11520;51.198;4.468;2023-11-21T05:39:23;11.00;99.90
22706;DHT22;11520;51.198;4.468;2023-11-21T05:44:21;11.10;99.90
22706;DHT22;11520;51.198;4.468;2023-11-21T05:46:48;11.20;99.90
22706;DHT22;11520;51.198;4.468;2023-11-21T05:49:16;11.20;99.90
22706;DHT22;11520;51.198;4.468;2023-11-21T05:51:42;11.20;99.90
22706;DHT22;11520;51.198;4.468;2023-11-21T05:56:33;11.20;99.90
22706;DHT22;11520;51.198;4.468;2023-11-21T05:59:03;11.30;99.90
22706;DHT22;11520;51.198;4.468;2023-11-21T06:01:29;11.30;99.90
22706;DHT22;11520;51.198;4.468;2023-11-21T06:03:54;11.30;99.90
22706;DHT22;11520;51.198;4.468;2023-11-21T06:06:23;11.30;99.90
22706;DHT22;11520;51.198;4.468;2023-11-21T06:08:50;11.40;99.90
22706;DHT22;11520;51.198;4.468;2023-11-21T06:11:15;11.40;99.90
22706;DHT22;11520;51.198;4.468;2023-11-21T06:13:42;11.40;99.90
22706;DHT22;11520;51.198;4.468;2023-11-21T06:16:08;11.40;99.90
22706;DHT22;11520;51.198;4.468;2023-11-21T06:18:33;11.40;99.90
22706;DHT22;11520;51.198;4.468;2023-11-21T06:21:00;11.50;99.90
22706;DHT22;11520;51.198;4.468;2023-11-21T06:23:26;11.50;99.90
22706;DHT22;11520;51.198;4.468;2023-11-21T06:25:51;11.50;99.90
22706;DHT22;11520;51.198;4.468;2023-11-21T06:28:18;11.50;99.90
22706;DHT22;11520;51.198;4.468;2023-11-21T06:30:44;11.60;99.90
22706;DHT22;11520;51.198;4.468;2023-11-21T06:33:10;11.50;99.90
22706;DHT22;11520;51.198;4.468;2023-11-21T06:35:36;11.40;99.90
22706;DHT22;11520;51.198;4.468;2023-11-21T06:38:02;11.50;99.90
22706;DHT22;11520;51.198;4.468;2023-11-21T06:40:28;11.50;99.90
22706;DHT22;11520;51.198;4.468;2023-11-21T06:42:53;11.50;99.90
22706;DHT22;11520;51.198;4.468;2023-11-21T06:45:19;11.50;99.90
22706;DHT22;11520;51.198;4.468;2023-11-21T06:47:48;11.50;99.90
22706;DHT22;11520;51.198;4.468;2023-11-21T06:50:14;11.50;99.90
22706;DHT22;11520;51.198;4.468;2023-11-21T06:52:40;11.50;99.90
22706;DHT22;11520;51.198;4.468;2023-11-21T06:55:06;11.50;99.90
22706;DHT22;11520;51.198;4.468;2023-11-21T06:57:33;11.60;99.90
22706;DHT22;11520;51.198;4.468;2023-11-21T06:59:59;11.50;99.90
22706;DHT22;11520;51.198;4.468;2023-11-21T07:02:25;11.60;99.90
22706;DHT22;11520;51.198;4.468;2023-11-21T07:04:50;11.60;99.90
22706;DHT22;11520;51.198;4.468;2023-11-21T07:07:16;11.60;99.90
22706;DHT22;11520;51.198;4.468;2023-11-21T07:09:42;11.60;99.90
22706;DHT22;11520;51.198;4.468;2023-11-21T07:12:08;11.60;99.90
22706;DHT22;11520;51.198;4.468;2023-11-21T07:14:34;11.60;99.90
22706;DHT22;11520;51.198;4.468;2023-11-21T07:17:00;11.60;99.90
22706;DHT22;11520;51.198;4.468;2023-11-21T07:19:26;11.60;99.90
22706;DHT22;11520;51.198;4.468;2023-11-21T07:21:51;11.70;99.90
22706;DHT22;11520;51.198;4.468;2023-11-21T07:24:17;11.70;99.90
22706;DHT22;11520;51.198;4.468;2023-11-21T07:26:43;11.70;99.90
22706;DHT22;11520;51.198;4.468;2023-11-21T07:29:09;11.70;99.90
22706;DHT22;11520;51.198;4.468;2023-11-21T07:31:34;11.80;99.90
22706;DHT22;11520;51.198;4.468;2023-11-21T07:34:00;11.80;99.90
22706;DHT22;11520;51.198;4.468;2023-11-21T07:36:26;11.80;99.90
22706;DHT22;11520;51.198;4.468;2023-11-21T07:38:53;11.90;99.90
22706;DHT22;11520;51.198;4.468;2023-11-21T07:41:18;11.80;99.90
22706;DHT22;11520;51.198;4.468;2023-11-21T07:43:45;11.90;99.90
22706;DHT22;11520;51.198;4.468;2023-11-21T07:46:12;11.80;99.90
22706;DHT22;11520;51.198;4.468;2023-11-21T07:48:39;11.80;99.90
22706;DHT22;11520;51.198;4.468;2023-11-21T07:51:05;11.90;99.90
22706;DHT22;11520;51.198;4.468;2023-11-21T07:53:31;11.90;99.90
22706;DHT22;11520;51.198;4.468;2023-11-21T07:55:58;12.00;99.90
22706;DHT22;11520;51.198;4.468;2023-11-21T07:58:24;12.00;99.90
22706;DHT22;11520;51.198;4.468;2023-11-21T08:00:50;12.20;99.90
22706;DHT22;11520;51.198;4.468;2023-11-21T08:03:16;12.10;99.90
22706;DHT22;11520;51.198;4.468;2023-11-21T08:05:45;12.10;99.90
22706;DHT22;11520;51.198;4.468;2023-11-21T08:08:12;12.20;99.90
22706;DHT22;11520;51.198;4.468;2023-11-21T08:10:38;12.20;99.90
22706;DHT22;11520;51.198;4.468;2023-11-21T08:13:04;12.20;99.90
22706;DHT22;11520;51.198;4.468;2023-11-21T08:15:30;12.30;99.90
22706;DHT22;11520;51.198;4.468;2023-11-21T08:17:57;12.30;99.90
22706;DHT22;11520;51.198;4.468;2023-11-21T08:20:24;12.30;99.90
22706;DHT22;11520;51.198;4.468;2023-11-21T08:22:50;12.40;99.90
22706;DHT22;11520;51.198;4.468;2023-11-21T08:25:17;12.40;99.90
22706;DHT22;11520;51.198;4.468;2023-11-21T08:30:20;12.50;99.90
22706;DHT22;11520;51.198;4.468;2023-11-21T08:32:49;12.50;99.90
22706;DHT22;11520;51.198;4.468;2023-11-21T08:35:14;12.60;99.90
22706;DHT22;11520;51.198;4.468;2023-11-21T08:37:41;12.60;99.90
22706;DHT22;11520;51.198;4.468;2023-11-21T08:40:07;12.70;99.90
22706;DHT22;11520;51.198;4.468;2023-11-21T08:42:37;12.60;99.90
22706;DHT22;11520;51.198;4.468;2023-11-21T08:47:39;12.70;99.90
22706;DHT22;11520;51.198;4.468;2023-11-21T08:50:06;12.70;99.90
22706;DHT22;11520;51.198;4.468;2023-11-21T08:52:33;12.70;99.90
22706;DHT22;11520;51.198;4.468;2023-11-21T08:54:59;12.70;99.90
22706;DHT22;11520;51.198;4.468;2023-11-21T08:57:28;12.60;99.90
22706;DHT22;11520;51.198;4.468;2023-11-21T08:59:54;12.60;99.90
22706;DHT22;11520;51.198;4.468;2023-11-21T09:02:25;12.70;99.90
22706;DHT22;11520;51.198;4.468;2023-11-21T09:04:51;12.60;99.90
22706;DHT22;11520;51.198;4.468;2023-11-21T09:07:18;12.20;99.90
22706;DHT22;11520;51.198;4.468;2023-11-21T09:09:48;11.90;99.90
22706;DHT22;11520;51.198;4.468;2023-11-21T09:12:15;11.70;99.90
22706;DHT22;11520;51.198;4.468;2023-11-21T09:14:42;11.90;99.90
22706;DHT22;11520;51.198;4.468;2023-11-21T09:17:09;11.90;99.90
22706;DHT22;11520;51.198;4.468;2023-11-21T09:19:40;11.80;99.90
22706;DHT22;11520;51.198;4.468;2023-11-21T09:22:05;11.70;99.90
22706;DHT22;11520;51.198;4.468;2023-11-21T09:24:32;11.70;99.90
22706;DHT22;11520;51.198;4.468;2023-11-21T09:26:58;11.90;99.90
22706;DHT22;11520;51.198;4.468;2023-11-21T09:29:27;11.90;99.90
22706;DHT22;11520;51.198;4.468;2023-11-21T09:31:57;11.70;99.90
22706;DHT22;11520;51.198;4.468;2023-11-21T09:34:25;11.80;99.90
22706;DHT22;11520;51.198;4.468;2023-11-21T09:36:51;11.80;99.90
22706;DHT22;11520;51.198;4.468;2023-11-21T09:39:17;12.00;99.90
22706;DHT22;11520;51.198;4.468;2023-11-21T09:41:52;11.90;99.90
22706;DHT22;11520;51.198;4.468;2023-11-21T09:47:04;11.70;99.90
22706;DHT22;11520;51.198;4.468;2023-11-21T09:49:35;11.80;99.90
22706;DHT22;11520;51.198;4.468;2023-11-21T09:52:01;11.80;99.90
22706;DHT22;11520;51.198;4.468;2023-11-21T09:54:29;12.00;99.90
22706;DHT22;11520;51.198;4.468;2023-11-21T09:57:00;12.00;99.90
22706;DHT22;11520;51.198;4.468;2023-11-21T09:59:30;12.20;99.90
22706;DHT22;11520;51.198;4.468;2023-11-21T10:01:57;12.40;99.90
22706;DHT22;11520;51.198;4.468;2023-11-21T10:04:23;12.60;99.90
22706;DHT22;11520;51.198;4.468;2023-11-21T10:06:50;12.60;99.90
22706;DHT22;11520;51.198;4.468;2023-11-21T10:09:16;13.00;99.90
22706;DHT22;11520;51.198;4.468;2023-11-21T10:11:42;13.10;99.90
22706;DHT22;11520;51.198;4.468;2023-11-21T10:14:12;13.30;99.90
22706;DHT22;11520;51.198;4.468;2023-11-21T10:16:40;13.40;99.90
22706;DHT22;11520;51.198;4.468;2023-11-21T10:19:11;13.40;99.90
22706;DHT22;11520;51.198;4.468;2023-11-21T10:26:44;14.10;99.90
22706;DHT22;11520;51.198;4.468;2023-11-21T10:29:14;13.80;99.90
22706;DHT22;11520;51.198;4.468;2023-11-21T10:31:42;13.90;99.90
22706;DHT22;11520;51.198;4.468;2023-11-21T10:34:15;13.70;99.90
22706;DHT22;11520;51.198;4.468;2023-11-21T10:36:41;13.50;99.90
22706;DHT22;11520;51.198;4.468;2023-11-21T10:39:07;13.40;99.90
22706;DHT22;11520;51.198;4.468;2023-11-21T10:41:33;13.20;99.90
22706;DHT22;11520;51.198;4.468;2023-11-21T10:43:59;13.00;99.90
22706;DHT22;11520;51.198;4.468;2023-11-21T10:46:25;13.20;99.90
22706;DHT22;11520;51.198;4.468;2023-11-21T10:48:54;12.90;99.90
22706;DHT22;11520;51.198;4.468;2023-11-21T10:51:21;12.50;99.90
22706;DHT22;11520;51.198;4.468;2023-11-21T10:53:47;12.60;99.90
22706;DHT22;11520;51.198;4.468;2023-11-21T10:56:14;12.70;99.90
22706;DHT22;11520;51.198;4.468;2023-11-21T10:58:45;12.60;99.90
22706;DHT22;11520;51.198;4.468;2023-11-21T11:01:11;12.60;99.90
22706;DHT22;11520;51.198;4.468;2023-11-21T11:03:39;12.60;99.90
22706;DHT22;11520;51.198;4.468;2023-11-21T11:06:05;12.60;99.90
22706;DHT22;11520;51.198;4.468;2023-11-21T11:08:37;12.70;99.90
22706;DHT22;11520;51.198;4.468;2023-11-21T11:11:06;12.50;99.90
22706;DHT22;11520;51.198;4.468;2023-11-21T11:13:32;12.40;99.90
22706;DHT22;11520;51.198;4.468;2023-11-21T11:15:59;12.20;99.90
22706;DHT22;11520;51.198;4.468;2023-11-21T11:18:29;12.20;99.90
22706;DHT22;11520;51.198;4.468;2023-11-21T11:21:01;12.20;99.90
22706;DHT22;11520;51.198;4.468;2023-11-21T11:37:55;12.70;99.90
22706;DHT22;11520;51.198;4.468;2023-11-21T11:40:22;12.60;99.90
22706;DHT22;11520;51.198;4.468;2023-11-21T11:42:57;12.50;99.90
22706;DHT22;11520;51.198;4.468;2023-11-21T11:45:31;12.40;99.90
22706;DHT22;11520;51.198;4.468;2023-11-21T11:48:00;12.30;99.90
22706;DHT22;11520;51.198;4.468;2023-11-21T11:50:27;12.30;99.90
22706;DHT22;11520;51.198;4.468;2023-11-21T11:52:53;12.30;99.90
22706;DHT22;11520;51.198;4.468;2023-11-21T11:55:24;12.20;99.90
22706;DHT22;11520;51.198;4.468;2023-11-21T12:03:01;12.30;99.90
22706;DHT22;11520;51.198;4.468;2023-11-21T12:05:31;12.40;99.90
22706;DHT22;11520;51.198;4.468;2023-11-21T12:08:00;12.40;99.90
22706;DHT22;11520;51.198;4.468;2023-11-21T12:10:28;12.50;99.90
22706;DHT22;11520;51.198;4.468;2023-11-21T12:12:58;12.30;99.90
22706;DHT22;11520;51.198;4.468;2023-11-21T12:15:24;12.50;99.90
22706;DHT22;11520;51.198;4.468;2023-11-21T12:17:59;12.80;99.90
22706;DHT22;11520;51.198;4.468;2023-11-21T12:20:26;13.10;99.90
22706;DHT22;11520;51.198;4.468;2023-11-21T12:23:02;13.20;99.90
22706;DHT22;11520;51.198;4.468;2023-11-21T12:25:30;13.00;99.90
22706;DHT22;11520;51.198;4.468;2023-11-21T12:28:00;13.00;99.90
22706;DHT22;11520;51.198;4.468;2023-11-21T12:30:30;13.00;99.90
22706;DHT22;11520;51.198;4.468;2023-11-21T12:32:59;12.90;99.90
22706;DHT22;11520;51.198;4.468;2023-11-21T12:35:26;12.90;99.90
22706;DHT22;11520;51.198;4.468;2023-11-21T12:37:54;12.70;99.90
22706;DHT22;11520;51.198;4.468;2023-11-21T12:40:20;12.50;99.90
22706;DHT22;11520;51.198;4.468;2023-11-21T12:42:51;12.40;99.90
22706;DHT22;11520;51.198;4.468;2023-11-21T12:48:02;12.20;99.90
22706;DHT22;11520;51.198;4.468;2023-11-21T12:50:33;12.10;99.90
22706;DHT22;11520;51.198;4.468;2023-11-21T12:53:05;12.00;99.90
22706;DHT22;11520;51.198;4.468;2023-11-21T12:55:34;12.20;99.90
22706;DHT22;11520;51.198;4.468;2023-11-21T12:58:07;12.10;99.90
22706;DHT22;11520;51.198;4.468;2023-11-21T13:00:44;12.20;99.90
22706;DHT22;11520;51.198;4.468;2023-11-21T13:03:12;12.10;99.90
22706;DHT22;11520;51.198;4.468;2023-11-21T13:05:41;12.10;99.90
22706;DHT22;11520;51.198;4.468;2023-11-21T13:08:11;12.10;99.90
22706;DHT22;11520;51.198;4.468;2023-11-21T13:10:43;12.00;99.90
22706;DHT22;11520;51.198;4.468;2023-11-21T13:13:13;11.90;99.90
22706;DHT22;11520;51.198;4.468;2023-11-21T13:18:20;11.90;99.90
22706;DHT22;11520;51.198;4.468;2023-11-21T13:20:47;11.90;99.90
22706;DHT22;11520;51.198;4.468;2023-11-21T13:23:12;11.90;99.90
22706;DHT22;11520;51.198;4.468;2023-11-21T13:25:39;12.00;99.90
22706;DHT22;11520;51.198;4.468;2023-11-21T13:28:07;12.00;99.90
22706;DHT22;11520;51.198;4.468;2023-11-21T13:30:33;12.10;99.90
22706;DHT22;11520;51.198;4.468;2023-11-21T13:33:00;12.10;99.90
22706;DHT22;11520;51.198;4.468;2023-11-21T13:35:36;12.00;99.90
22706;DHT22;11520;51.198;4.468;2023-11-21T13:38:10;11.90;99.90
22706;DHT22;11520;51.198;4.468;2023-11-21T13:40:38;11.80;99.90
22706;DHT22;11520;51.198;4.468;2023-11-21T13:43:16;11.90;99.90
22706;DHT22;11520;51.198;4.468;2023-11-21T13:45:42;12.10;99.90
22706;DHT22;11520;51.198;4.468;2023-11-21T13:48:09;12.00;99.90
22706;DHT22;11520;51.198;4.468;2023-11-21T13:50:45;11.80;99.90
22706;DHT22;11520;51.198;4.468;2023-11-21T13:53:21;11.80;99.90
22706;DHT22;11520;51.198;4.468;2023-11-21T13:55:50;11.80;99.90
22706;DHT22;11520;51.198;4.468;2023-11-21T13:58:17;11.80;99.90
22706;DHT22;11520;51.198;4.468;2023-11-21T14:00:50;11.90;99.90
22706;DHT22;11520;51.198;4.468;2023-11-21T14:03:22;11.90;99.90
22706;DHT22;11520;51.198;4.468;2023-11-21T14:05:58;11.80;99.90
22706;DHT22;11520;51.198;4.468;2023-11-21T14:08:26;11.80;99.90
22706;DHT22;11520;51.198;4.468;2023-11-21T14:10:57;11.80;99.90
22706;DHT22;11520;51.198;4.468;2023-11-21T14:13:27;11.80;99.90
22706;DHT22;11520;51.198;4.468;2023-11-21T14:15:53;11.80;99.90
22706;DHT22;11520;51.198;4.468;2023-11-21T14:18:26;11.90;99.90
22706;DHT22;11520;51.198;4.468;2023-11-21T14:21:16;12.00;99.90
22706;DHT22;11520;51.198;4.468;2023-11-21T14:23:42;12.00;99.90
22706;DHT22;11520;51.198;4.468;2023-11-21T14:28:39;11.80;99.90
22706;DHT22;11520;51.198;4.468;2023-11-21T14:31:05;11.90;99.90
22706;DHT22;11520;51.198;4.468;2023-11-21T14:33:30;12.00;99.90
22706;DHT22;11520;51.198;4.468;2023-11-21T14:35:56;11.80;99.90
22706;DHT22;11520;51.198;4.468;2023-11-21T14:38:23;11.70;99.90
22706;DHT22;11520;51.198;4.468;2023-11-21T14:40:48;11.60;99.90
22706;DHT22;11520;51.198;4.468;2023-11-21T14:43:14;11.50;99.90
22706;DHT22;11520;51.198;4.468;2023-11-21T14:45:41;11.70;99.90
22706;DHT22;11520;51.198;4.468;2023-11-21T14:48:06;11.60;99.90
22706;DHT22;11520;51.198;4.468;2023-11-21T14:50:41;11.60;99.90
22706;DHT22;11520;51.198;4.468;2023-11-21T14:53:11;11.60;99.90
22706;DHT22;11520;51.198;4.468;2023-11-21T14:55:39;11.60;99.90
22706;DHT22;11520;51.198;4.468;2023-11-21T14:58:20;11.60;99.90
22706;DHT22;11520;51.198;4.468;2023-11-21T15:00:55;11.50;99.90
22706;DHT22;11520;51.198;4.468;2023-11-21T15:03:29;11.60;99.90
22706;DHT22;11520;51.198;4.468;2023-11-21T15:06:01;11.50;99.90
22706;DHT22;11520;51.198;4.468;2023-11-21T15:08:44;11.50;99.90
22706;DHT22;11520;51.198;4.468;2023-11-21T15:11:10;11.50;99.90
22706;DHT22;11520;51.198;4.468;2023-11-21T15:13:40;11.40;99.90
22706;DHT22;11520;51.198;4.468;2023-11-21T15:16:08;11.40;99.90
22706;DHT22;11520;51.198;4.468;2023-11-21T15:18:36;11.40;99.90
22706;DHT22;11520;51.198;4.468;2023-11-21T15:21:02;11.40;99.90
22706;DHT22;11520;51.198;4.468;2023-11-21T15:23:32;11.30;99.90
22706;DHT22;11520;51.198;4.468;2023-11-21T15:26:00;11.30;99.90
22706;DHT22;11520;51.198;4.468;2023-11-21T15:28:27;11.20;99.90
22706;DHT22;11520;51.198;4.468;2023-11-21T15:30:54;11.10;99.90
22706;DHT22;11520;51.198;4.468;2023-11-21T15:33:19;11.20;99.90
22706;DHT22;11520;51.198;4.468;2023-11-21T15:35:45;11.20;99.90
22706;DHT22;11520;51.198;4.468;2023-11-21T15:38:10;11.30;99.90
22706;DHT22;11520;51.198;4.468;2023-11-21T15:40:37;11.20;99.90
22706;DHT22;11520;51.198;4.468;2023-11-21T15:43:02;11.30;99.90
22706;DHT22;11520;51.198;4.468;2023-11-21T15:45:29;11.30;99.90
22706;DHT22;11520;51.198;4.468;2023-11-21T15:47:54;11.30;99.90
22706;DHT22;11520;51.198;4.468;2023-11-21T15:50:21;11.40;99.90
22706;DHT22;11520;51.198;4.468;2023-11-21T15:52:47;11.30;99.90
22706;DHT22;11520;51.198;4.468;2023-11-21T15:55:13;11.30;99.90
22706;DHT22;11520;51.198;4.468;2023-11-21T15:57:40;11.40;99.90
22706;DHT22;11520;51.198;4.468;2023-11-21T16:00:06;11.40;99.90
22706;DHT22;11520;51.198;4.468;2023-11-21T16:02:43;11.40;99.90
22706;DHT22;11520;51.198;4.468;2023-11-21T16:05:09;11.40;99.90
22706;DHT22;11520;51.198;4.468;2023-11-21T16:07:35;11.30;99.90
22706;DHT22;11520;51.198;4.468;2023-11-21T16:10:02;11.30;99.90
22706;DHT22;11520;51.198;4.468;2023-11-21T16:12:27;11.20;99.90
22706;DHT22;11520;51.198;4.468;2023-11-21T16:14:53;11.20;99.90
22706;DHT22;11520;51.198;4.468;2023-11-21T16:17:20;11.20;99.90
22706;DHT22;11520;51.198;4.468;2023-11-21T16:19:47;11.20;99.90